createdAt,value
2018-12-03T00:01:26.388Z,5.70
2018-12-03T00:03:52.364Z,5.73
2018-12-03T00:06:18.313Z,5.53
2018-12-03T00:08:44.291Z,5.47
2018-12-03T00:11:10.276Z,5.20
2018-12-03T00:13:36.235Z,4.93
2018-12-03T00:16:02.207Z,5.33
2018-12-03T00:18:28.891Z,5.37
2018-12-03T00:20:54.873Z,5.53
2018-12-03T00:23:21.544Z,5.10
2018-12-03T00:25:47.493Z,5.70
2018-12-03T00:28:13.470Z,5.47
2018-12-03T00:30:39.415Z,6.33
2018-12-03T00:33:05.399Z,5.40
2018-12-03T00:35:32.109Z,5.73
2018-12-03T00:37:58.072Z,5.87
2018-12-03T00:40:24.029Z,5.50
2018-12-03T00:42:50.014Z,6.13
2018-12-03T00:45:15.972Z,5.43
2018-12-03T00:47:41.944Z,5.87
2018-12-03T00:50:07.912Z,6.03
2018-12-03T00:52:33.890Z,6.40
2018-12-03T00:55:00.608Z,5.73
2018-12-03T00:57:26.605Z,5.90
2018-12-03T00:59:52.563Z,6.40
2018-12-03T01:02:19.298Z,6.60
2018-12-03T01:04:45.244Z,5.73
2018-12-03T01:07:11.240Z,5.73
2018-12-03T01:09:37.229Z,6.60
2018-12-03T01:12:03.171Z,6.90
2018-12-03T01:14:29.159Z,6.30
2018-12-03T01:16:55.104Z,6.53
2018-12-03T01:19:21.044Z,6.63
2018-12-03T01:21:46.996Z,6.20
2018-12-03T01:24:13.710Z,6.57
2018-12-03T01:26:39.665Z,6.37
2018-12-03T01:29:06.350Z,5.90
2018-12-03T01:31:32.345Z,6.20
2018-12-03T01:33:58.300Z,7.13
2018-12-03T01:36:24.275Z,6.60
2018-12-03T01:38:50.241Z,6.60
2018-12-03T01:41:16.216Z,6.57
2018-12-03T01:43:42.163Z,6.47
2018-12-03T01:46:08.155Z,6.70
2018-12-03T01:48:34.858Z,6.63
2018-12-03T01:51:01.585Z,5.67
2018-12-03T01:53:27.630Z,6.13
2018-12-03T01:55:53.654Z,6.20
2018-12-03T01:58:19.642Z,6.20
2018-12-03T02:00:45.604Z,7.23
2018-12-03T02:03:12.344Z,6.37
2018-12-03T02:05:38.298Z,5.87
2018-12-03T02:08:04.301Z,5.53
2018-12-03T02:10:31.007Z,6.00
2018-12-03T02:12:57.014Z,6.30
2018-12-03T02:15:22.968Z,5.93
2018-12-03T02:17:48.928Z,5.47
2018-12-03T02:20:14.929Z,5.80
2018-12-03T02:22:41.649Z,6.37
2018-12-03T02:25:07.640Z,6.17
2018-12-03T02:27:33.604Z,6.13
2018-12-03T02:29:59.574Z,5.33
2018-12-03T02:32:25.529Z,6.40
2018-12-03T02:34:51.523Z,5.37
2018-12-03T02:37:17.470Z,5.20
2018-12-03T02:39:43.449Z,5.13
2018-12-03T02:42:10.173Z,5.53
2018-12-03T02:44:36.874Z,5.37
2018-12-03T02:47:02.861Z,5.63
2018-12-03T02:49:28.837Z,5.20
2018-12-03T02:51:54.824Z,5.40
2018-12-03T02:54:20.790Z,5.13
2018-12-03T02:56:46.760Z,5.20
2018-12-03T02:59:12.718Z,4.57
2018-12-03T03:01:38.688Z,5.07
2018-12-03T03:04:05.376Z,4.90
2018-12-03T03:06:31.362Z,4.67
2018-12-03T03:08:57.319Z,5.80
2018-12-03T03:11:23.273Z,5.53
2018-12-03T03:13:50.002Z,5.73
2018-12-03T03:16:15.962Z,5.33
2018-12-03T03:18:41.927Z,5.60
2018-12-03T03:21:07.900Z,5.87
2018-12-03T03:23:33.900Z,5.60
2018-12-03T03:25:59.880Z,5.40
2018-12-03T03:28:25.867Z,5.73
2018-12-03T03:30:52.575Z,5.53
2018-12-03T03:33:18.545Z,5.27
2018-12-03T03:35:44.519Z,5.40
2018-12-03T03:38:10.524Z,5.43
2018-12-03T03:40:36.489Z,6.00
2018-12-03T03:43:03.247Z,5.27
2018-12-03T03:45:29.222Z,4.93
2018-12-03T03:47:55.204Z,5.00
2018-12-03T03:50:21.191Z,5.23
2018-12-03T03:52:47.891Z,4.97
2018-12-03T03:55:13.888Z,5.20
2018-12-03T03:57:39.873Z,4.77
2018-12-03T04:00:06.622Z,4.83
2018-12-03T04:02:33.332Z,5.50
2018-12-03T04:04:59.608Z,4.93
2018-12-03T04:07:25.580Z,5.60
2018-12-03T04:09:51.548Z,5.90
2018-12-03T04:12:18.273Z,4.67
2018-12-03T04:14:45.187Z,5.13
2018-12-03T04:17:11.290Z,4.63
2018-12-03T04:19:37.256Z,5.20
2018-12-03T04:22:03.299Z,4.73
2018-12-03T04:24:29.976Z,5.07
2018-12-03T04:26:56.674Z,4.70
2018-12-03T04:29:23.406Z,4.17
2018-12-03T04:31:50.096Z,5.13
2018-12-03T04:34:16.089Z,4.63
2018-12-03T04:36:42.065Z,4.60
2018-12-03T04:39:08.046Z,4.40
2018-12-03T04:41:34.004Z,4.20
2018-12-03T04:43:59.977Z,3.90
2018-12-03T04:46:25.975Z,3.33
2018-12-03T04:48:51.930Z,3.47
2018-12-03T04:51:17.917Z,2.97
2018-12-03T04:53:43.889Z,2.43
2018-12-03T04:56:09.872Z,3.17
2018-12-03T04:58:36.600Z,2.30
2018-12-03T05:01:02.561Z,2.87
2018-12-03T05:03:29.273Z,2.33
2018-12-03T05:05:55.242Z,2.80
2018-12-03T05:08:21.249Z,2.80
2018-12-03T05:10:47.213Z,2.80
2018-12-03T05:13:13.205Z,2.20
2018-12-03T05:15:39.182Z,2.23
2018-12-03T05:18:05.930Z,2.23
2018-12-03T05:20:32.639Z,2.50
2018-12-03T05:22:58.642Z,1.90
2018-12-03T05:25:24.616Z,2.20
2018-12-03T05:27:51.432Z,2.07
2018-12-03T05:30:17.441Z,2.20
2018-12-03T05:32:43.429Z,2.43
2018-12-03T05:35:10.125Z,1.70
2018-12-03T05:37:36.071Z,2.37
2018-12-03T05:40:02.790Z,1.73
2018-12-03T05:42:28.750Z,2.23
2018-12-03T05:44:55.481Z,2.00
2018-12-03T05:47:22.227Z,2.10
2018-12-03T05:49:48.957Z,1.80
2018-12-03T05:52:15.689Z,1.80
2018-12-03T05:54:42.424Z,1.63
2018-12-03T05:57:08.396Z,2.10
2018-12-03T05:59:34.384Z,1.93
2018-12-03T06:02:01.083Z,1.73
2018-12-03T06:04:27.048Z,1.60
2018-12-03T06:06:53.773Z,1.47
2018-12-03T06:09:19.729Z,1.33
2018-12-03T06:11:46.442Z,1.43
2018-12-03T06:14:12.386Z,2.20
2018-12-03T06:16:39.103Z,1.23
2018-12-03T06:19:05.037Z,1.87
2018-12-03T06:21:31.744Z,1.83
2018-12-03T06:23:57.687Z,1.83
2018-12-03T06:26:24.395Z,1.70
2018-12-03T06:28:50.377Z,1.60
2018-12-03T06:31:16.325Z,1.90
2018-12-03T06:33:42.316Z,1.40
2018-12-03T06:36:08.261Z,2.20
2018-12-03T06:38:34.240Z,1.27
2018-12-03T06:41:00.209Z,1.93
2018-12-03T06:43:26.205Z,1.87
2018-12-03T06:45:52.912Z,2.37
2018-12-03T06:48:18.988Z,1.67
2018-12-03T06:50:44.948Z,1.53
2018-12-03T06:53:10.893Z,1.50
2018-12-03T06:55:36.881Z,1.70
2018-12-03T06:58:02.811Z,1.60
2018-12-03T07:00:28.778Z,1.47
2018-12-03T07:02:55.493Z,1.47
2018-12-03T07:05:21.481Z,1.40
2018-12-03T07:07:47.430Z,1.53
2018-12-03T07:10:13.432Z,1.20
2018-12-03T07:12:39.385Z,1.30
2018-12-03T07:15:05.384Z,1.50
2018-12-03T07:17:31.359Z,1.50
2018-12-03T07:19:58.100Z,1.20
2018-12-03T07:22:24.792Z,1.57
2018-12-03T07:24:50.741Z,1.00
2018-12-03T07:27:16.787Z,1.27
2018-12-03T07:29:43.480Z,0.90
2018-12-03T07:32:09.472Z,1.17
2018-12-03T07:34:35.463Z,1.70
2018-12-03T07:37:02.186Z,1.47
2018-12-03T07:39:28.138Z,1.30
2018-12-03T07:41:54.140Z,1.20
2018-12-03T07:44:20.837Z,1.00
2018-12-03T07:46:46.793Z,1.33
2018-12-03T07:49:12.774Z,1.07
2018-12-03T07:51:38.735Z,1.57
2018-12-03T07:54:05.479Z,1.00
2018-12-03T07:56:32.196Z,1.63
2018-12-03T07:58:58.183Z,1.20
2018-12-03T08:01:24.137Z,1.53
2018-12-03T08:03:50.141Z,1.47
2018-12-03T08:06:16.107Z,1.20
2018-12-03T08:08:42.064Z,1.43
2018-12-03T08:11:08.054Z,1.20
2018-12-03T08:13:34.755Z,1.60
2018-12-03T08:16:00.740Z,1.10
2018-12-03T08:18:27.445Z,0.80
2018-12-03T08:20:53.454Z,1.07
2018-12-03T08:23:19.410Z,1.03
2018-12-03T08:25:45.374Z,1.30
2018-12-03T08:28:11.354Z,1.87
2018-12-03T08:30:37.292Z,1.37
2018-12-03T08:33:04.027Z,1.03
2018-12-03T08:35:30.749Z,1.10
2018-12-03T08:37:56.746Z,1.30
2018-12-03T08:40:22.702Z,0.93
2018-12-03T08:42:48.680Z,1.20
2018-12-03T08:45:14.631Z,1.00
2018-12-03T08:47:40.640Z,0.80
2018-12-03T08:50:06.604Z,1.23
2018-12-03T08:52:33.335Z,1.40
2018-12-03T08:54:59.288Z,1.13
2018-12-03T08:57:25.283Z,1.30
2018-12-03T08:59:51.227Z,1.70
2018-12-03T09:02:17.180Z,1.40
2018-12-03T09:04:43.145Z,1.43
2018-12-03T09:07:09.088Z,0.93
2018-12-03T09:09:35.802Z,1.67
2018-12-03T09:12:01.756Z,1.10
2018-12-03T09:14:27.729Z,1.10
2018-12-03T09:16:53.720Z,1.37
2018-12-03T09:19:19.718Z,1.33
2018-12-03T09:21:46.418Z,1.83
2018-12-03T09:24:12.370Z,1.60
2018-12-03T09:26:39.100Z,1.10
2018-12-03T09:29:05.045Z,1.90
2018-12-03T09:31:31.021Z,1.50
2018-12-03T09:33:56.962Z,1.77
2018-12-03T09:36:22.937Z,1.60
2018-12-03T09:38:48.912Z,1.30
2018-12-03T09:41:15.651Z,1.83
2018-12-03T09:43:42.357Z,1.30
2018-12-03T09:46:08.344Z,1.50
2018-12-03T09:48:34.317Z,1.27
2018-12-03T09:51:00.311Z,1.50
2018-12-03T09:53:26.278Z,1.43
2018-12-03T09:55:52.231Z,1.40
2018-12-03T09:58:18.232Z,1.30
2018-12-03T10:00:44.948Z,1.43
2018-12-03T10:03:10.920Z,1.63
2018-12-03T10:05:36.896Z,1.27
2018-12-03T10:08:02.890Z,1.40
2018-12-03T10:10:28.856Z,1.60
2018-12-03T10:12:54.852Z,1.60
2018-12-03T10:15:20.818Z,1.60
2018-12-03T10:17:47.547Z,1.30
2018-12-03T10:20:14.253Z,1.83
2018-12-03T10:22:40.244Z,1.60
2018-12-03T10:25:06.223Z,1.37
2018-12-03T10:27:32.991Z,1.50
2018-12-03T10:29:58.978Z,1.30
2018-12-03T10:32:24.957Z,1.80
2018-12-03T10:34:50.967Z,1.97
2018-12-03T10:37:16.916Z,1.67
2018-12-03T10:39:42.880Z,2.03
2018-12-03T10:42:08.851Z,1.23
2018-12-03T10:44:34.825Z,1.60
2018-12-03T10:47:01.543Z,1.03
2018-12-03T10:49:27.524Z,1.53
2018-12-03T10:51:53.528Z,1.60
2018-12-03T10:54:20.232Z,1.60
2018-12-03T10:56:46.964Z,2.30
2018-12-03T10:59:12.907Z,1.10
2018-12-03T11:01:38.878Z,1.27
2018-12-03T11:04:04.834Z,1.60
2018-12-03T11:06:30.834Z,1.47
2018-12-03T11:08:56.786Z,1.37
2018-12-03T11:11:22.761Z,1.43
2018-12-03T11:13:48.729Z,1.57
2018-12-03T11:16:14.700Z,1.83
2018-12-03T11:18:40.665Z,1.40
2018-12-03T11:21:06.643Z,1.20
2018-12-03T11:23:34.622Z,1.57
2018-12-03T11:25:58.647Z,1.60
2018-12-03T11:28:24.597Z,1.80
2018-12-03T11:30:50.567Z,1.63
2018-12-03T11:33:16.530Z,1.50
2018-12-03T11:35:42.486Z,1.57
2018-12-03T11:38:08.478Z,1.60
2018-12-03T11:40:34.413Z,1.47
2018-12-03T11:43:01.159Z,1.57
2018-12-03T11:45:27.848Z,1.43
2018-12-03T11:47:53.834Z,1.50
2018-12-03T11:50:19.787Z,1.53
2018-12-03T11:52:45.783Z,1.60
2018-12-03T11:55:11.767Z,1.60
2018-12-03T11:57:37.727Z,1.67
2018-12-03T12:00:03.710Z,1.53
2018-12-03T12:02:29.639Z,1.30
2018-12-03T12:04:56.392Z,1.80
2018-12-03T12:07:23.110Z,1.53
2018-12-03T12:09:49.084Z,1.77
2018-12-03T12:12:15.041Z,2.43
2018-12-03T12:14:41.039Z,2.13
2018-12-03T12:17:06.992Z,1.80
2018-12-03T12:19:32.943Z,1.77
2018-12-03T12:21:59.666Z,2.03
2018-12-03T12:24:25.606Z,1.93
2018-12-03T12:26:52.320Z,1.70
2018-12-03T12:29:18.287Z,2.27
2018-12-03T12:31:44.275Z,2.50
2018-12-03T12:34:10.239Z,1.60
2018-12-03T12:36:36.228Z,1.80
2018-12-03T12:39:02.199Z,1.63
2018-12-03T12:41:28.214Z,2.07
2018-12-03T12:43:54.175Z,1.70
2018-12-03T12:46:20.125Z,1.93
2018-12-03T12:48:46.856Z,1.47
2018-12-03T12:51:13.544Z,2.23
2018-12-03T12:53:39.533Z,1.40
2018-12-03T12:56:06.232Z,1.60
2018-12-03T12:58:32.242Z,1.87
2018-12-03T13:00:58.210Z,1.57
2018-12-03T13:03:24.924Z,1.90
2018-12-03T13:05:50.908Z,1.80
2018-12-03T13:08:16.868Z,1.70
2018-12-03T13:10:42.882Z,1.50
2018-12-03T13:13:08.852Z,1.70
2018-12-03T13:15:34.849Z,1.57
2018-12-03T13:18:00.811Z,1.33
2018-12-03T13:20:26.803Z,2.33
2018-12-03T13:22:52.777Z,1.77
2018-12-03T13:25:18.765Z,2.27
2018-12-03T13:27:45.495Z,1.30
2018-12-03T13:30:12.204Z,1.70
2018-12-03T13:32:38.183Z,1.63
2018-12-03T13:35:04.134Z,2.00
2018-12-03T13:37:30.188Z,2.20
2018-12-03T13:39:56.898Z,1.47
2018-12-03T13:42:22.865Z,2.00
2018-12-03T13:44:49.616Z,1.40
2018-12-03T13:47:16.331Z,1.73
2018-12-03T13:49:42.334Z,1.60
2018-12-03T13:52:08.291Z,1.70
2018-12-03T13:54:35.029Z,1.70
2018-12-03T13:57:01.716Z,2.00
2018-12-03T13:59:27.705Z,1.87
2018-12-03T14:01:54.436Z,1.70
2018-12-03T14:04:20.417Z,1.73
2018-12-03T14:06:47.140Z,2.30
2018-12-03T14:09:13.096Z,1.83
2018-12-03T14:11:39.080Z,1.57
2018-12-03T14:14:05.065Z,1.83
2018-12-03T14:16:33.059Z,2.57
2018-12-03T14:18:57.784Z,2.13
2018-12-03T14:21:23.753Z,2.13
2018-12-03T14:23:50.455Z,2.23
2018-12-03T14:26:17.173Z,1.70
2018-12-03T14:28:43.521Z,1.63
2018-12-03T14:31:09.223Z,1.70
2018-12-03T14:33:35.182Z,2.03
2018-12-03T14:36:01.146Z,1.60
2018-12-03T14:38:27.135Z,1.70
2018-12-03T14:40:53.836Z,1.27
2018-12-03T14:43:19.826Z,1.80
2018-12-03T14:45:45.785Z,2.23
2018-12-03T14:48:11.788Z,1.50
2018-12-03T14:50:37.749Z,1.57
2018-12-03T14:53:07.776Z,1.60
2018-12-03T14:55:29.715Z,1.53
2018-12-03T14:57:55.711Z,1.63
2018-12-03T15:00:21.703Z,1.73
2018-12-03T15:02:47.665Z,1.90
2018-12-03T15:05:13.668Z,2.30
2018-12-03T15:07:39.630Z,1.90
2018-12-03T15:10:06.364Z,2.00
2018-12-03T15:12:32.340Z,1.33
2018-12-03T15:14:58.321Z,2.20
2018-12-03T15:17:25.032Z,1.70
2018-12-03T15:19:51.054Z,1.70
2018-12-03T15:22:17.016Z,2.00
2018-12-03T15:24:43.750Z,2.10
2018-12-03T15:27:10.475Z,1.87
2018-12-03T15:29:36.460Z,2.00
2018-12-03T15:32:02.423Z,1.80
2018-12-03T15:34:28.407Z,2.40
2018-12-03T15:36:54.373Z,1.60
2018-12-03T15:39:21.114Z,2.40
2018-12-03T15:41:47.086Z,1.90
2018-12-03T15:44:13.087Z,1.80
2018-12-03T15:46:39.070Z,1.97
2018-12-03T15:49:05.033Z,2.07
2018-12-03T15:51:31.031Z,2.00
2018-12-03T15:53:57.711Z,2.07
2018-12-03T15:56:23.737Z,1.97
2018-12-03T15:58:49.693Z,2.07
2018-12-03T16:01:15.747Z,1.70
2018-12-03T16:03:41.680Z,2.30
2018-12-03T16:06:07.686Z,1.90
2018-12-03T16:08:34.408Z,1.83
2018-12-03T16:11:00.409Z,2.17
2018-12-03T16:13:26.377Z,2.33
2018-12-03T16:15:53.131Z,2.13
2018-12-03T16:18:19.843Z,2.00
2018-12-03T16:20:46.536Z,2.63
2018-12-03T16:23:12.526Z,2.30
2018-12-03T16:25:39.209Z,3.10
2018-12-03T16:28:05.163Z,2.93
2018-12-03T16:30:31.124Z,3.17
2018-12-03T16:32:57.140Z,2.83
2018-12-03T16:35:23.830Z,3.30
2018-12-03T16:37:49.777Z,3.40
2018-12-03T16:40:15.764Z,3.23
2018-12-03T16:42:41.752Z,3.07
2018-12-03T16:45:07.734Z,3.03
2018-12-03T16:47:33.689Z,2.93
2018-12-03T16:50:00.413Z,4.23
2018-12-03T16:52:26.345Z,3.93
2018-12-03T16:54:53.117Z,4.00
2018-12-03T16:57:19.057Z,3.20
2018-12-03T16:59:45.023Z,3.80
2018-12-03T17:02:11.733Z,3.40
2018-12-03T17:04:37.696Z,4.00
2018-12-03T17:07:03.672Z,4.13
2018-12-03T17:09:29.647Z,3.83
2018-12-03T17:11:56.379Z,3.43
2018-12-03T17:14:23.072Z,4.60
2018-12-03T17:16:49.025Z,4.40
2018-12-03T17:19:14.996Z,4.30
2018-12-03T17:21:40.959Z,4.43
2018-12-03T17:24:06.966Z,4.40
2018-12-03T17:26:32.928Z,5.13
2018-12-03T17:28:59.627Z,5.10
2018-12-03T17:31:25.632Z,5.10
2018-12-03T17:33:51.589Z,4.67
2018-12-03T17:36:17.580Z,4.67
2018-12-03T17:38:43.540Z,5.00
2018-12-03T17:41:09.524Z,4.43
2018-12-03T17:43:35.484Z,4.43
2018-12-03T17:46:01.481Z,4.30
2018-12-03T17:48:27.436Z,4.13
2018-12-03T17:50:53.425Z,5.80
2018-12-03T17:53:19.434Z,4.80
2018-12-03T17:55:45.405Z,5.43
2018-12-03T17:58:11.391Z,4.50
2018-12-03T18:00:37.344Z,5.47
2018-12-03T18:03:03.316Z,4.90
2018-12-03T18:05:29.275Z,4.50
2018-12-03T18:07:55.252Z,4.93
2018-12-03T18:10:21.940Z,3.50
2018-12-03T18:12:47.917Z,2.83
2018-12-03T18:15:13.897Z,2.90
2018-12-03T18:17:39.863Z,2.57
2018-12-03T18:20:05.862Z,1.97
2018-12-03T18:22:32.559Z,2.07
2018-12-03T18:24:58.563Z,1.93
2018-12-03T18:27:24.512Z,1.93
2018-12-03T18:29:50.455Z,1.73
2018-12-03T18:32:16.424Z,2.70
2018-12-03T18:34:42.369Z,2.03
2018-12-03T18:37:08.372Z,2.27
2018-12-03T18:39:34.334Z,2.60
2018-12-03T18:42:00.275Z,2.00
2018-12-03T18:44:27.000Z,2.80
2018-12-03T18:46:52.968Z,1.47
2018-12-03T18:49:18.958Z,2.40
2018-12-03T18:51:44.903Z,2.50
2018-12-03T18:54:10.915Z,1.97
2018-12-03T18:56:37.639Z,2.70
2018-12-03T18:59:03.638Z,2.00
2018-12-03T19:01:29.588Z,1.90
2018-12-03T19:03:55.531Z,1.80
2018-12-03T19:06:21.534Z,1.90
2018-12-03T19:08:47.481Z,1.83
2018-12-03T19:11:13.478Z,1.50
2018-12-03T19:13:40.192Z,0.83
2018-12-03T19:16:06.192Z,0.90
2018-12-03T19:18:32.139Z,0.67
2018-12-03T19:20:58.126Z,0.87
2018-12-03T19:23:24.081Z,0.90
2018-12-03T19:25:50.062Z,0.80
2018-12-03T19:28:16.052Z,0.90
2018-12-03T19:30:41.997Z,1.30
2018-12-03T19:33:07.994Z,1.03
2018-12-03T19:35:34.700Z,1.63
2018-12-03T19:38:00.688Z,1.33
2018-12-03T19:40:26.645Z,1.30
2018-12-03T19:42:52.652Z,1.50
2018-12-03T19:45:18.639Z,2.20
2018-12-03T19:47:45.363Z,1.80
2018-12-03T19:50:11.338Z,1.67
2018-12-03T19:52:37.309Z,1.47
2018-12-03T19:55:03.278Z,1.47
2018-12-03T19:57:29.241Z,1.07
2018-12-03T20:00:00.717Z,1.80
2018-12-03T20:02:22.017Z,1.00
2018-12-03T20:04:47.997Z,1.47
2018-12-03T20:07:13.947Z,0.90
2018-12-03T20:09:39.937Z,0.60
2018-12-03T20:12:05.879Z,0.80
2018-12-03T20:14:31.853Z,0.60
2018-12-03T20:16:57.829Z,0.77
2018-12-03T20:19:23.816Z,1.57
2018-12-03T20:21:50.507Z,1.37
2018-12-03T20:24:16.453Z,1.20
2018-12-03T20:26:43.189Z,1.03
2018-12-03T20:29:09.900Z,0.83
2018-12-03T20:31:35.891Z,0.90
2018-12-03T20:34:01.863Z,1.27
2018-12-03T20:36:27.850Z,0.90
2018-12-03T20:38:53.809Z,0.93
2018-12-03T20:41:19.805Z,1.30
2018-12-03T20:43:45.779Z,1.20
2018-12-03T20:46:12.682Z,0.60
2018-12-03T20:48:46.160Z,1.20
2018-12-03T20:51:12.144Z,1.03
2018-12-03T20:53:38.837Z,1.03
2018-12-03T20:56:04.788Z,0.60
2018-12-03T20:58:31.539Z,0.70
2018-12-03T21:00:58.224Z,0.70
2018-12-03T21:03:24.211Z,0.57
2018-12-03T21:05:50.904Z,0.87
2018-12-03T21:08:16.879Z,0.97
2018-12-03T21:10:42.824Z,0.77
2018-12-03T21:13:08.814Z,0.90
2018-12-03T21:15:35.510Z,1.00
2018-12-03T21:18:01.462Z,1.10
2018-12-03T21:20:28.189Z,0.77
2018-12-03T21:22:54.131Z,0.60
2018-12-03T21:25:20.853Z,0.87
2018-12-03T21:27:46.830Z,0.57
2018-12-03T21:30:12.812Z,1.17
2018-12-03T21:32:39.509Z,2.10
2018-12-03T21:35:05.490Z,0.83
2018-12-03T21:37:32.182Z,0.90
2018-12-03T21:39:58.179Z,0.93
2018-12-03T21:42:24.157Z,0.60
2018-12-03T21:44:50.955Z,0.97
2018-12-03T21:47:16.999Z,0.77
2018-12-03T21:49:43.762Z,0.93
2018-12-03T21:52:10.444Z,0.70
2018-12-03T21:54:36.753Z,1.27
2018-12-03T21:57:03.480Z,0.80
2018-12-03T21:59:30.174Z,0.87
2018-12-03T22:01:56.163Z,0.90
2018-12-03T22:04:22.106Z,0.63
2018-12-03T22:06:48.877Z,0.70
2018-12-03T22:09:14.960Z,0.60
2018-12-03T22:11:40.925Z,0.90
2018-12-03T22:14:06.899Z,0.70
2018-12-03T22:16:32.859Z,1.20
2018-12-03T22:18:58.833Z,0.83
2018-12-03T22:21:24.782Z,0.97
2018-12-03T22:23:50.781Z,1.00
2018-12-03T22:26:16.748Z,0.57
2018-12-03T22:28:42.749Z,1.20
2018-12-03T22:31:08.730Z,0.43
2018-12-03T22:33:35.461Z,0.57
2018-12-03T22:36:01.419Z,0.70
2018-12-03T22:38:27.411Z,0.63
2018-12-03T22:40:53.371Z,0.70
2018-12-03T22:43:19.338Z,0.57
2018-12-03T22:45:45.318Z,0.93
2018-12-03T22:48:11.266Z,0.63
2018-12-03T22:50:37.252Z,0.70
2018-12-03T22:53:03.200Z,0.43
2018-12-03T22:55:29.163Z,0.50
2018-12-03T22:57:55.148Z,0.60
2018-12-03T23:00:21.114Z,0.60
2018-12-03T23:02:47.072Z,0.60
2018-12-03T23:05:13.056Z,0.73
2018-12-03T23:07:38.999Z,0.70
2018-12-03T23:10:04.981Z,0.70
2018-12-03T23:12:30.935Z,0.70
2018-12-03T23:14:57.661Z,0.80
2018-12-03T23:17:23.628Z,0.70
2018-12-03T23:19:49.586Z,0.67
2018-12-03T23:22:15.567Z,1.27
2018-12-03T23:24:41.512Z,0.40
2018-12-03T23:27:07.509Z,0.70
2018-12-03T23:29:33.480Z,0.77
2018-12-03T23:31:59.486Z,0.90
2018-12-03T23:34:25.452Z,0.80
2018-12-03T23:36:52.510Z,0.50
2018-12-03T23:39:19.207Z,0.67
2018-12-03T23:41:45.952Z,0.50
2018-12-03T23:44:11.933Z,1.00
2018-12-03T23:46:37.924Z,1.00
2018-12-03T23:49:04.634Z,0.60
2018-12-03T23:51:36.016Z,0.63
2018-12-03T23:53:56.621Z,0.80
2018-12-03T23:56:23.330Z,0.67
2018-12-03T23:58:50.083Z,1.00
